Time;durP1;ratioP1;P1;durP2;ratioP2;P2;SDS_P1;SDS_P2;PMS_P1;PMS_P2;Temp;Humidity;BMP_temperature;BMP_pressure;BME280_temperature;BME280_humidity;BME280_pressure;Samples;Min_cycle;Max_cycle;Signal;HPM_P1;HPM_P2
2021/08/25 00:02:09;;;;;;;19.55;14.90;;;;;;;22.06;100.00;100763.48;1767111;81;21048;-59
2021/08/25 00:04:40;;;;;;;19.98;13.90;;;;;;;22.04;100.00;100767.21;1765898;81;21076;-58
2021/08/25 00:07:07;;;;;;;19.42;14.83;;;;;;;22.04;100.00;100761.75;1768975;81;20953;-60
2021/08/25 00:09:36;;;;;;;21.97;14.40;;;;;;;22.04;100.00;100753.56;1764988;81;21652;-60
2021/08/25 00:12:05;;;;;;;21.12;15.10;;;;;;;22.04;100.00;100756.30;1768448;80;21053;-59
2021/08/25 00:14:33;;;;;;;21.07;14.85;;;;;;;22.04;100.00;100759.51;1759040;81;20942;-60
2021/08/25 00:16:59;;;;;;;21.42;14.53;;;;;;;22.04;100.00;100760.88;1771008;81;21016;-58
2021/08/25 00:19:26;;;;;;;17.27;13.32;;;;;;;22.01;100.00;100753.83;1767455;79;21072;-60
2021/08/25 00:21:54;;;;;;;17.42;13.72;;;;;;;22.02;100.00;100755.56;1766054;81;21002;-60
2021/08/25 00:24:22;;;;;;;17.10;13.25;;;;;;;22.02;100.00;100750.58;1768684;81;20982;-59
2021/08/25 00:26:49;;;;;;;16.62;12.20;;;;;;;21.98;100.00;100756.78;1768673;80;21040;-60
2021/08/25 00:29:16;;;;;;;17.10;12.60;;;;;;;21.94;100.00;100751.22;1768212;81;21458;-58
2021/08/25 00:31:43;;;;;;;14.47;12.50;;;;;;;21.93;100.00;100752.73;1767104;81;21005;-59
2021/08/25 00:34:10;;;;;;;16.48;11.90;;;;;;;21.90;100.00;100755.20;1767366;81;21202;-61
2021/08/25 00:36:37;;;;;;;15.80;11.90;;;;;;;21.87;100.00;100750.86;1766355;80;21263;-60
2021/08/25 00:39:04;;;;;;;15.60;11.63;;;;;;;21.86;100.00;100746.91;1770145;81;21101;-60
2021/08/25 00:41:31;;;;;;;17.37;11.20;;;;;;;21.82;100.00;100753.62;1765001;81;21247;-59
2021/08/25 00:43:58;;;;;;;13.88;11.10;;;;;;;21.79;100.00;100747.06;1766805;80;21112;-59
2021/08/25 00:46:30;;;;;;;12.78;11.40;;;;;;;21.77;100.00;100751.27;1764963;81;21665;-58
2021/08/25 00:48:57;;;;;;;20.20;11.97;;;;;;;21.73;100.00;100752.00;1745451;81;21057;-59
2021/08/25 00:51:25;;;;;;;20.02;12.50;;;;;;;21.72;100.00;100750.78;1764429;80;21516;-60
2021/08/25 00:53:51;;;;;;;24.50;11.18;;;;;;;21.70;100.00;100754.14;1763357;81;21434;-59
2021/08/25 00:56:20;;;;;;;15.20;9.68;;;;;;;21.67;100.00;100747.06;1763793;81;20946;-59
2021/08/25 00:58:47;;;;;;;24.50;9.78;;;;;;;21.64;100.00;100751.38;1770960;81;21076;-60
2021/08/25 01:01:38;;;;;;;23.95;9.95;;;;;;;21.59;100.00;100750.90;1771275;81;21023;-60
2021/08/25 01:04:13;;;;;;;31.85;9.93;;;;;;;21.52;100.00;100751.01;1759285;81;21033;-59
2021/08/25 01:06:42;;;;;;;28.52;10.50;;;;;;;21.42;100.00;100752.25;1767014;79;21506;-59
2021/08/25 01:09:09;;;;;;;38.45;12.40;;;;;;;21.26;100.00;100746.70;1767070;80;21044;-58
2021/08/25 01:11:40;;;;;;;31.15;13.38;;;;;;;21.13;100.00;100752.75;1758422;80;21125;-59
2021/08/25 01:14:06;;;;;;;37.55;13.68;;;;;;;20.93;100.00;100744.30;1769584;79;21679;-59
2021/08/25 01:16:36;;;;;;;32.50;13.98;;;;;;;20.76;100.00;100740.16;1768102;80;21564;-59
2021/08/25 01:19:03;;;;;;;32.35;14.70;;;;;;;20.57;100.00;100738.86;1744945;80;21036;-60
2021/08/25 01:21:30;;;;;;;36.90;14.98;;;;;;;20.45;100.00;100730.30;1764467;79;20996;-61
2021/08/25 01:23:57;;;;;;;35.10;14.28;;;;;;;20.42;100.00;100731.87;1775056;80;21493;-59
2021/08/25 01:26:24;;;;;;;31.73;15.03;;;;;;;20.44;100.00;100729.42;1772749;80;21064;-60
2021/08/25 01:28:54;;;;;;;30.10;14.28;;;;;;;20.52;100.00;100731.55;1775312;80;21043;-59
2021/08/25 01:31:22;;;;;;;35.33;15.58;;;;;;;20.55;100.00;100731.31;1745647;80;21533;-58
2021/08/25 01:33:49;;;;;;;30.05;15.60;;;;;;;20.60;100.00;100726.36;1772774;79;21484;-60
2021/08/25 01:36:19;;;;;;;32.98;15.88;;;;;;;20.67;100.00;100732.69;1767689;79;22217;-60
2021/08/25 01:38:53;;;;;;;32.50;16.02;;;;;;;20.69;100.00;100736.19;1777552;80;21016;-59
2021/08/25 01:41:27;;;;;;;40.38;16.80;;;;;;;20.61;100.00;100732.70;1774129;80;21127;-60
2021/08/25 01:43:58;;;;;;;28.15;16.77;;;;;;;20.58;100.00;100737.02;1770997;79;21017;-60
2021/08/25 01:46:34;;;;;;;31.10;16.97;;;;;;;20.54;100.00;100741.83;1771260;80;21016;-60
2021/08/25 01:49:05;;;;;;;32.55;17.45;;;;;;;20.47;100.00;100736.49;1757498;80;21084;-60
2021/08/25 01:51:30;;;;;;;27.52;15.43;;;;;;;20.41;100.00;100735.58;1773963;79;21087;-60
2021/08/25 01:53:59;;;;;;;27.27;15.68;;;;;;;20.35;100.00;100733.34;1770084;80;21524;-59
2021/08/25 01:56:26;;;;;;;22.90;15.83;;;;;;;20.30;100.00;100729.13;1774150;80;21445;-59
2021/08/25 01:58:54;;;;;;;28.05;15.55;;;;;;;20.28;100.00;100725.66;1764372;80;21107;-60
2021/08/25 02:01:21;;;;;;;28.35;15.75;;;;;;;20.27;100.00;100729.84;1770334;80;21466;-58
2021/08/25 02:03:48;;;;;;;26.97;15.00;;;;;;;20.25;100.00;100725.89;1774976;80;21056;-59
2021/08/25 02:06:15;;;;;;;25.60;15.28;;;;;;;20.24;100.00;100720.55;1759084;79;21406;-59
2021/08/25 02:08:44;;;;;;;22.22;14.30;;;;;;;20.23;100.00;100718.34;1776555;80;21035;-60
2021/08/25 02:11:10;;;;;;;21.33;14.45;;;;;;;20.27;100.00;100718.48;1767700;80;21071;-60
2021/08/25 02:13:38;;;;;;;16.30;12.50;;;;;;;20.40;100.00;100719.76;1769106;80;21110;-60
2021/08/25 02:16:05;;;;;;;21.27;13.40;;;;;;;20.55;100.00;100712.24;1763648;81;21533;-61
2021/08/25 02:18:32;;;;;;;20.55;12.47;;;;;;;20.67;100.00;100711.78;1763509;81;20996;-60
2021/08/25 02:21:00;;;;;;;19.80;13.10;;;;;;;20.65;100.00;100722.41;1761416;81;21040;-60
2021/08/25 02:23:28;;;;;;;24.90;12.93;;;;;;;20.60;100.00;100720.06;1768442;81;21068;-60
2021/08/25 02:25:55;;;;;;;24.82;12.80;;;;;;;20.50;100.00;100717.19;1764561;79;21482;-60
2021/08/25 02:28:22;;;;;;;25.75;12.28;;;;;;;20.43;100.00;100722.72;1769585;81;21037;-58
2021/08/25 02:30:49;;;;;;;25.70;12.10;;;;;;;20.41;100.00;100720.61;1762454;80;22165;-59
2021/08/25 02:33:16;;;;;;;25.25;12.00;;;;;;;20.42;100.00;100720.50;1761426;81;21029;-58
2021/08/25 02:35:43;;;;;;;15.90;10.90;;;;;;;20.43;100.00;100722.23;1766844;79;21045;-59
2021/08/25 02:38:10;;;;;;;15.83;11.83;;;;;;;20.45;100.00;100723.50;1764283;81;21529;-60
2021/08/25 02:40:38;;;;;;;18.60;12.05;;;;;;;20.45;100.00;100723.50;1769732;81;20957;-59
2021/08/25 02:43:05;;;;;;;14.07;11.97;;;;;;;20.42;100.00;100726.42;1767626;81;21457;-58
2021/08/25 02:45:32;;;;;;;16.42;11.70;;;;;;;20.37;100.00;100730.89;1766353;81;21042;-58
2021/08/25 02:47:59;;;;;;;17.10;11.83;;;;;;;20.26;100.00;100723.55;1769048;81;21005;-60
2021/08/25 02:50:26;;;;;;;17.67;11.30;;;;;;;20.19;100.00;100722.26;1766680;81;21843;-60
2021/08/25 02:52:53;;;;;;;13.28;10.90;;;;;;;20.10;100.00;100720.25;1760152;80;21273;-62
2021/08/25 02:55:20;;;;;;;13.22;10.93;;;;;;;20.01;100.00;100717.25;1764691;81;21040;-60
2021/08/25 02:57:47;;;;;;;13.35;10.00;;;;;;;19.95;100.00;100713.61;1762103;81;21560;-59
2021/08/25 03:00:15;;;;;;;19.10;10.43;;;;;;;19.92;100.00;100716.57;1761795;79;21506;-59
2021/08/25 03:02:43;;;;;;;20.92;10.90;;;;;;;19.90;100.00;100714.42;1765289;81;21113;-59
2021/08/25 03:05:11;;;;;;;22.32;11.73;;;;;;;19.86;100.00;100717.86;1765845;81;21086;-60
2021/08/25 03:07:38;;;;;;;18.15;10.30;;;;;;;19.83;100.00;100719.96;1765112;81;20933;-58
2021/08/25 03:10:07;;;;;;;20.82;10.90;;;;;;;19.82;100.00;100723.66;1769734;81;21564;-58
2021/08/25 03:12:34;;;;;;;19.35;11.18;;;;;;;19.80;100.00;100713.39;1769697;80;21072;-60
2021/08/25 03:15:05;;;;;;;14.47;11.20;;;;;;;19.75;100.00;100715.94;1793754;79;21110;-58
2021/08/25 03:17:31;;;;;;;14.60;11.08;;;;;;;19.71;100.00;100715.80;1793960;80;21125;-59
2021/08/25 03:19:58;;;;;;;19.02;10.78;;;;;;;19.71;100.00;100719.88;1790324;79;21043;-59
2021/08/25 03:22:28;;;;;;;20.97;11.95;;;;;;;19.72;100.00;100720.77;1793270;80;21105;-59
2021/08/25 03:24:56;;;;;;;19.37;12.47;;;;;;;19.75;100.00;100721.89;1793587;80;21071;-58
2021/08/25 03:27:22;;;;;;;24.07;12.68;;;;;;;19.78;100.00;100720.30;1793234;79;21789;-59
2021/08/25 03:29:51;;;;;;;21.23;11.80;;;;;;;19.83;100.00;100721.33;1793802;80;20918;-59
2021/08/25 03:32:18;;;;;;;22.55;12.07;;;;;;;19.86;100.00;100718.37;1794060;79;21048;-59
2021/08/25 03:34:45;;;;;;;23.80;12.18;;;;;;;19.91;100.00;100720.27;1793133;78;21095;-59
2021/08/25 03:37:13;;;;;;;19.85;12.45;;;;;;;19.98;100.00;100720.17;1792307;80;21020;-59
2021/08/25 03:39:40;;;;;;;24.37;13.18;;;;;;;20.01;100.00;100715.89;1782297;80;21754;-59
2021/08/25 03:42:11;;;;;;;20.60;12.00;;;;;;;20.04;100.00;100719.73;1799897;78;21020;-60
2021/08/25 03:44:39;;;;;;;26.68;13.05;;;;;;;20.08;100.00;100722.22;1793596;78;21030;-60
2021/08/25 03:47:06;;;;;;;22.80;12.30;;;;;;;20.10;100.00;100721.61;1794010;80;21501;-60
2021/08/25 03:49:34;;;;;;;20.08;12.18;;;;;;;20.14;100.00;100721.75;1770656;80;21086;-58
2021/08/25 03:52:01;;;;;;;22.42;12.15;;;;;;;20.18;100.00;100715.96;1792966;80;21123;-58
2021/08/25 03:54:28;;;;;;;22.50;11.97;;;;;;;20.25;100.00;100715.00;1793914;80;21024;-58
2021/08/25 03:56:56;;;;;;;16.60;12.23;;;;;;;20.32;100.00;100714.90;1793806;79;21047;-58
2021/08/25 03:59:23;;;;;;;22.55;12.43;;;;;;;20.41;100.00;100719.25;1785290;80;21036;-61
2021/08/25 04:01:50;;;;;;;31.62;13.00;;;;;;;20.49;100.00;100726.83;1794224;80;20921;-59
2021/08/25 04:04:18;;;;;;;25.95;12.98;;;;;;;20.55;100.00;100720.89;1791036;80;21194;-59
2021/08/25 04:06:45;;;;;;;25.32;13.15;;;;;;;20.65;100.00;100721.05;1793883;80;21086;-60
2021/08/25 04:09:12;;;;;;;26.00;13.50;;;;;;;20.73;100.00;100728.14;1794199;80;21079;-59
2021/08/25 04:11:40;;;;;;;24.32;12.37;;;;;;;20.79;100.00;100727.65;1794161;80;21032;-59
2021/08/25 04:14:07;;;;;;;16.55;11.75;;;;;;;20.87;100.00;100729.30;1776888;80;21471;-59
2021/08/25 04:16:35;;;;;;;18.95;12.03;;;;;;;20.96;100.00;100728.20;1767544;81;21122;-58
2021/08/25 04:19:01;;;;;;;20.02;12.47;;;;;;;21.04;100.00;100725.73;1767513;81;21064;-60
2021/08/25 04:21:29;;;;;;;17.27;12.35;;;;;;;21.15;100.00;100726.23;1765912;79;21522;-59
2021/08/25 04:23:55;;;;;;;18.07;12.70;;;;;;;21.24;100.00;100722.78;1759472;79;21037;-59
2021/08/25 04:26:22;;;;;;;18.37;12.68;;;;;;;21.32;100.00;100722.13;1762719;81;21002;-60
2021/08/25 04:28:49;;;;;;;22.02;12.40;;;;;;;21.42;100.00;100729.95;1769985;81;22261;-60
2021/08/25 04:31:18;;;;;;;23.62;13.03;;;;;;;21.50;100.00;100731.17;1763501;81;21013;-59
2021/08/25 04:33:45;;;;;;;25.00;13.45;;;;;;;21.55;100.00;100727.56;1765557;81;22410;-59
2021/08/25 04:36:13;;;;;;;26.80;14.15;;;;;;;21.58;100.00;100727.34;1769438;79;20945;-60
2021/08/25 04:38:41;;;;;;;25.30;14.73;;;;;;;21.62;100.00;100726.09;1766996;81;21025;-57
2021/08/25 04:41:10;;;;;;;19.23;14.90;;;;;;;21.67;100.00;100723.88;1769223;81;21135;-58
2021/08/25 04:43:37;;;;;;;26.33;15.78;;;;;;;21.72;100.00;100727.59;1767308;81;21080;-58
2021/08/25 04:46:04;;;;;;;32.83;16.42;;;;;;;21.78;100.00;100724.86;1767528;81;21025;-58
2021/08/25 04:48:31;;;;;;;28.62;15.58;;;;;;;21.85;100.00;100728.80;1768756;81;21450;-59
2021/08/25 04:50:58;;;;;;;27.70;15.28;;;;;;;21.94;100.00;100723.92;1768582;79;21037;-57
2021/08/25 04:53:24;;;;;;;25.75;15.18;;;;;;;22.04;100.00;100724.91;1764936;81;21182;-59
2021/08/25 04:55:52;;;;;;;21.52;15.20;;;;;;;22.14;100.00;100718.65;1766773;81;21048;-58
2021/08/25 04:58:18;;;;;;;26.30;15.00;;;;;;;22.23;100.00;100730.17;1768515;79;21017;-59
2021/08/25 05:00:48;;;;;;;32.35;16.97;;;;;;;22.36;100.00;100725.02;1769015;80;21139;-58
2021/08/25 05:03:14;;;;;;;34.15;17.27;;;;;;;22.50;100.00;100728.83;1767277;81;21541;-58
2021/08/25 05:05:41;;;;;;;33.08;15.78;;;;;;;22.64;100.00;100727.63;1768081;79;21505;-58
2021/08/25 05:08:08;;;;;;;25.17;14.40;;;;;;;22.84;100.00;100731.86;1768647;81;21056;-58
2021/08/25 05:10:36;;;;;;;23.20;13.35;;;;;;;23.03;100.00;100722.41;1762434;81;21028;-59
2021/08/25 05:13:03;;;;;;;26.00;13.53;;;;;;;23.20;100.00;100726.00;1769223;80;21012;-59
2021/08/25 05:15:32;;;;;;;23.83;14.83;;;;;;;23.35;100.00;100712.36;1718048;82;20999;-59
2021/08/25 05:17:59;;;;;;;24.27;14.70;;;;;;;23.53;99.30;100717.14;1741306;82;21568;-59
2021/08/25 05:20:26;;;;;;;27.25;14.28;;;;;;;23.68;98.25;100718.49;1750015;81;21055;-59
2021/08/25 05:22:53;;;;;;;26.85;14.30;;;;;;;23.83;97.33;100715.36;1731320;82;21064;-59
2021/08/25 05:25:20;;;;;;;21.15;13.25;;;;;;;23.97;96.70;100719.03;1748990;81;21492;-58
2021/08/25 05:27:47;;;;;;;20.12;12.18;;;;;;;24.14;95.95;100719.38;1739081;82;21572;-59
2021/08/25 05:30:14;;;;;;;17.67;11.60;;;;;;;24.29;95.00;100712.47;1742871;82;21722;-59
2021/08/25 05:32:43;;;;;;;28.73;11.73;;;;;;;24.46;93.74;100715.50;1737278;82;21374;-59
2021/08/25 05:35:10;;;;;;;22.07;10.63;;;;;;;24.64;92.87;100707.87;1741370;82;21031;-59
2021/08/25 05:37:39;;;;;;;16.45;10.82;;;;;;;24.85;91.26;100709.95;1742052;82;21040;-61
2021/08/25 05:40:08;;;;;;;18.52;9.88;;;;;;;25.17;89.74;100701.84;1729560;82;21091;-59
2021/08/25 05:42:34;;;;;;;17.82;9.73;;;;;;;25.62;87.20;100699.34;1740323;81;21560;-59
2021/08/25 05:45:02;;;;;;;19.37;9.85;;;;;;;26.10;83.70;100706.89;1748716;81;21012;-59
2021/08/25 05:47:29;;;;;;;19.20;10.15;;;;;;;26.49;80.17;100713.08;1746158;79;21071;-59
2021/08/25 05:49:56;;;;;;;22.02;9.90;;;;;;;26.76;77.81;100709.86;1745390;81;21587;-59
2021/08/25 05:52:24;;;;;;;15.08;10.18;;;;;;;26.91;75.06;100710.16;1756603;79;21082;-59
2021/08/25 05:54:51;;;;;;;20.92;9.73;;;;;;;26.97;74.15;100714.50;1748532;81;21109;-58
2021/08/25 05:57:18;;;;;;;16.07;10.25;;;;;;;27.03;73.46;100719.84;1750552;81;21530;-58
2021/08/25 05:59:46;;;;;;;16.35;8.75;;;;;;;27.04;72.88;100721.56;1746717;81;21761;-58
2021/08/25 06:02:13;;;;;;;26.50;10.43;;;;;;;27.03;72.36;100719.84;1743421;81;21518;-59
2021/08/25 06:04:40;;;;;;;31.02;11.45;;;;;;;26.99;71.99;100716.58;1748005;81;21599;-59
2021/08/25 06:07:10;;;;;;;30.12;11.83;;;;;;;27.02;71.82;100716.74;1749007;81;21087;-59
2021/08/25 06:09:37;;;;;;;24.52;12.58;;;;;;;27.07;71.31;100718.48;1743860;81;21324;-60
2021/08/25 06:12:05;;;;;;;22.35;11.25;;;;;;;27.13;71.06;100720.61;1741049;81;21717;-60
2021/08/25 06:14:32;;;;;;;20.02;10.53;;;;;;;27.22;70.99;100722.02;1751132;81;21080;-60
2021/08/25 06:16:59;;;;;;;16.40;9.03;;;;;;;27.31;70.72;100730.15;1730180;81;21685;-60
2021/08/25 06:19:28;;;;;;;16.05;9.20;;;;;;;27.40;69.10;100723.30;1729398;81;21831;-60
2021/08/25 06:21:55;;;;;;;21.45;8.90;;;;;;;27.46;67.46;100725.41;1726550;81;21830;-61
2021/08/25 06:24:22;;;;;;;13.05;9.08;;;;;;;27.54;66.27;100729.59;1727343;81;21112;-60
2021/08/25 06:26:49;;;;;;;14.87;8.20;;;;;;;27.62;64.91;100726.51;1729245;81;21084;-60
2021/08/25 06:29:16;;;;;;;21.75;8.55;;;;;;;27.70;63.12;100726.55;1733831;81;21115;-58
2021/08/25 06:31:44;;;;;;;14.68;9.48;;;;;;;27.81;61.24;100731.73;1735024;81;21755;-59
2021/08/25 06:34:10;;;;;;;20.43;9.95;;;;;;;27.92;59.22;100729.71;1729330;81;21136;-59
2021/08/25 06:36:39;;;;;;;14.43;9.33;;;;;;;27.95;57.69;100730.22;1726230;81;21072;-59
2021/08/25 06:39:09;;;;;;;17.48;9.23;;;;;;;28.03;56.56;100727.50;1728525;81;21216;-59
2021/08/25 06:41:37;;;;;;;15.13;8.58;;;;;;;28.12;55.57;100728.87;1729173;81;21005;-60
2021/08/25 06:44:05;;;;;;;15.03;8.65;;;;;;;28.19;54.14;100731.35;1731160;81;21227;-61
2021/08/25 06:46:32;;;;;;;21.37;9.55;;;;;;;28.25;53.35;100726.52;1723960;81;22193;-60
2021/08/25 06:49:00;;;;;;;17.50;8.58;;;;;;;28.34;53.17;100728.77;1727209;81;21072;-59
2021/08/25 06:51:28;;;;;;;20.40;8.50;;;;;;;28.44;52.49;100731.36;1725777;81;21758;-59
2021/08/25 06:53:55;;;;;;;14.55;8.93;;;;;;;28.49;53.01;100739.09;1729001;81;21131;-61
2021/08/25 06:56:22;;;;;;;15.53;7.87;;;;;;;28.52;52.75;100739.63;1727782;81;21142;-60
2021/08/25 06:58:49;;;;;;;13.75;8.15;;;;;;;28.57;52.12;100744.63;1775201;79;21053;-61
2021/08/25 07:01:15;;;;;;;16.05;7.85;;;;;;;28.63;52.12;100744.43;1770504;79;21026;-59
2021/08/25 07:03:43;;;;;;;19.40;7.58;;;;;;;28.71;51.70;100743.06;1771478;79;21127;-61
2021/08/25 07:06:10;;;;;;;19.70;10.10;;;;;;;28.77;50.81;100746.50;1767560;79;21077;-61
2021/08/25 07:08:38;;;;;;;26.85;9.98;;;;;;;28.87;51.23;100744.47;1772508;79;21123;-60
2021/08/25 07:11:06;;;;;;;29.50;10.68;;;;;;;28.93;51.82;100753.08;1785419;79;21045;-60
2021/08/25 07:13:35;;;;;;;26.87;10.60;;;;;;;28.99;52.63;100755.13;1772231;79;21401;-61
2021/08/25 07:16:04;;;;;;;30.68;9.60;;;;;;;29.08;52.52;100758.73;1775300;78;21587;-61
2021/08/25 07:18:32;;;;;;;25.45;9.30;;;;;;;29.14;52.35;100758.89;1768584;79;21578;-61
2021/08/25 07:20:59;;;;;;;34.20;10.10;;;;;;;29.20;52.19;100766.13;1769944;79;21586;-60
2021/08/25 07:23:26;;;;;;;26.17;9.98;;;;;;;29.22;52.22;100757.14;1775445;79;21024;-60
2021/08/25 07:25:53;;;;;;;17.57;7.60;;;;;;;29.29;51.26;100758.14;1769407;79;21065;-61
2021/08/25 07:28:20;;;;;;;16.37;7.50;;;;;;;29.38;49.30;100755.72;1765046;79;21066;-61
2021/08/25 07:30:47;;;;;;;15.88;6.97;;;;;;;29.45;48.56;100759.51;1760860;79;21524;-61
2021/08/25 07:33:16;;;;;;;14.83;6.80;;;;;;;29.55;47.76;100751.02;1767872;79;21174;-61
2021/08/25 07:35:46;;;;;;;20.12;7.58;;;;;;;29.66;47.38;100754.44;1775575;79;21044;-61
2021/08/25 07:38:12;;;;;;;14.50;7.50;;;;;;;29.71;47.71;100751.45;1764425;79;21076;-61
2021/08/25 07:40:39;;;;;;;17.35;7.62;;;;;;;29.73;47.09;100753.55;1772659;79;21074;-61
2021/08/25 07:43:06;;;;;;;15.15;7.72;;;;;;;29.76;46.60;100752.84;1776177;79;21022;-60
2021/08/25 07:45:36;;;;;;;15.32;8.28;;;;;;;29.73;46.87;100748.52;1768228;79;21533;-61
2021/08/25 07:48:05;;;;;;;22.70;8.63;;;;;;;29.78;47.06;100745.23;1770291;79;21025;-61
2021/08/25 07:50:32;;;;;;;14.43;8.33;;;;;;;29.87;47.13;100742.74;1774333;79;20996;-62
2021/08/25 07:52:59;;;;;;;24.02;8.78;;;;;;;29.95;47.63;100739.92;1771075;79;21493;-62
2021/08/25 07:55:26;;;;;;;20.80;8.95;;;;;;;29.97;48.70;100736.48;1770051;79;21037;-61
2021/08/25 07:57:54;;;;;;;18.67;9.95;;;;;;;29.95;51.09;100742.68;1774309;79;22405;-63
2021/08/25 08:00:21;;;;;;;15.60;9.03;;;;;;;29.94;52.12;100742.34;1769207;78;20989;-63
2021/08/25 08:02:48;;;;;;;22.55;9.40;;;;;;;30.00;52.04;100743.02;1769827;79;21076;-61
2021/08/25 08:05:15;;;;;;;19.42;9.95;;;;;;;30.09;51.57;100743.86;1775354;79;21142;-61
2021/08/25 08:07:43;;;;;;;14.00;9.30;;;;;;;30.12;51.29;100738.47;1780733;79;21077;-60
2021/08/25 08:10:11;;;;;;;18.02;9.88;;;;;;;30.13;51.44;100738.81;1778497;79;21062;-61
2021/08/25 08:12:38;;;;;;;13.90;9.63;;;;;;;30.19;52.69;100737.22;1776780;79;21563;-61
2021/08/25 08:15:11;;;;;;;15.28;10.30;;;;;;;30.20;53.15;100737.05;1776368;79;21091;-60
2021/08/25 08:17:38;;;;;;;17.60;9.53;;;;;;;30.15;53.96;100730.68;1781456;79;21032;-61
2021/08/25 08:20:07;;;;;;;15.48;9.55;;;;;;;30.11;53.80;100733.98;1777949;79;21282;-61
2021/08/25 08:22:34;;;;;;;14.58;9.80;;;;;;;30.09;53.79;100727.78;1777010;79;21695;-61
2021/08/25 08:25:01;;;;;;;21.15;9.28;;;;;;;30.05;54.37;100732.81;1772672;79;21073;-60
2021/08/25 08:27:28;;;;;;;17.40;10.28;;;;;;;30.03;54.99;100729.91;1772821;79;21038;-63
2021/08/25 08:29:57;;;;;;;13.93;10.18;;;;;;;30.01;56.05;100727.28;1773200;79;21048;-60
2021/08/25 08:32:24;;;;;;;18.55;10.50;;;;;;;30.03;56.50;100724.38;1772817;79;21051;-61
2021/08/25 08:34:51;;;;;;;13.78;9.58;;;;;;;30.04;56.78;100723.34;1773937;79;21807;-60
2021/08/25 08:37:18;;;;;;;15.80;10.53;;;;;;;30.04;56.64;100731.63;1774412;79;21044;-62
2021/08/25 08:39:45;;;;;;;25.35;9.90;;;;;;;30.03;56.14;100739.58;1769729;79;21037;-64
2021/08/25 08:42:29;;;;;;;13.43;9.78;;;;;;;29.94;55.74;100729.91;1772860;79;21054;-60
2021/08/25 08:44:57;;;;;;;14.80;9.65;;;;;;;29.88;55.76;100732.03;1772507;78;21262;-62
2021/08/25 08:47:25;;;;;;;11.08;9.23;;;;;;;29.80;55.36;100730.70;1762851;79;21953;-61
2021/08/25 08:50:00;;;;;;;13.55;9.63;;;;;;;29.71;55.78;100733.49;1772095;79;21084;-64
2021/08/25 08:52:27;;;;;;;;;;;;;;;29.65;56.49;100728.70;1773548;79;21109;-60
2021/08/25 08:54:55;;;;;;;14.05;8.85;;;;;;;29.59;56.97;100723.91;1773061;79;20141;-63
2021/08/25 08:57:22;;;;;;;13.83;8.18;;;;;;;29.54;57.34;100720.83;1764040;79;21108;-62
2021/08/25 08:59:49;;;;;;;13.15;7.70;;;;;;;29.55;56.65;100722.55;1774927;79;21611;-64
2021/08/25 09:02:38;;;;;;;10.70;7.80;;;;;;;29.55;57.25;100719.25;1765097;79;21615;-63
2021/08/25 09:05:24;;;;;;;16.57;11.45;;;;;;;29.56;56.83;100713.22;1762798;79;21036;-62
2021/08/25 09:08:00;;;;;;;12.78;8.08;;;;;;;29.61;57.60;100717.68;1762883;79;20993;-60
2021/08/25 09:10:35;;;;;;;11.40;7.72;;;;;;;29.66;58.46;100713.84;1773737;79;21076;-61
2021/08/25 09:13:10;;;;;;;11.48;7.45;;;;;;;29.65;58.84;100720.41;1764806;79;21073;-62
2021/08/25 09:15:41;;;;;;;9.38;7.58;;;;;;;29.58;58.19;100711.14;1763509;79;20980;-61
2021/08/25 09:18:14;;;;;;;9.13;7.22;;;;;;;29.52;58.58;100713.25;1747203;79;21489;-63
2021/08/25 09:20:48;;;;;;;11.12;7.47;;;;;;;29.48;58.73;100708.59;1764022;79;21710;-62
2021/08/25 09:23:26;;;;;;;11.00;7.00;;;;;;;29.44;59.20;100708.08;1766560;79;21055;-62
2021/08/25 09:25:56;;;;;;;9.43;7.00;;;;;;;29.34;59.77;100701.90;1769789;79;21131;-61
2021/08/25 09:28:32;;;;;;;11.75;6.70;;;;;;;29.22;60.76;100703.31;1775776;79;21058;-61
2021/08/25 09:31:06;;;;;;;15.00;9.00;;;;;;;29.10;59.80;100703.72;1766379;79;21132;-60
2021/08/25 09:33:36;;;;;;;11.00;7.25;;;;;;;29.01;61.03;100697.35;1775445;79;21456;-61
2021/08/25 09:36:10;;;;;;;31.77;20.45;;;;;;;29.02;62.39;100696.81;1764494;79;21702;-61
2021/08/25 09:38:40;;;;;;;9.80;6.92;;;;;;;29.11;62.64;100699.91;1770380;79;21379;-62
2021/08/25 09:41:11;;;;;;;11.55;7.40;;;;;;;29.13;62.24;100683.16;1763678;79;20894;-62
2021/08/25 09:43:46;;;;;;;8.83;7.33;;;;;;;29.11;62.40;100683.35;1769443;79;21518;-62
2021/08/25 09:46:26;;;;;;;15.38;7.70;;;;;;;29.11;61.52;100682.48;1767716;79;21501;-61
2021/08/25 09:48:57;;;;;;;11.43;7.42;;;;;;;29.04;60.93;100683.70;1766117;79;20937;-61
2021/08/25 09:51:26;;;;;;;10.88;7.37;;;;;;;28.97;62.38;100665.64;1768747;79;21868;-61
2021/08/25 09:54:14;;;;;;;11.00;7.22;;;;;;;28.93;63.35;100674.44;1770332;78;20890;-61
2021/08/25 09:56:43;;;;;;;9.13;7.28;;;;;;;28.87;63.84;100679.63;1766572;79;21060;-61
2021/08/25 09:59:12;;;;;;;15.78;7.42;;;;;;;28.78;63.61;100668.22;1761040;79;20997;-61
2021/08/25 10:01:42;;;;;;;10.95;7.25;;;;;;;28.69;63.65;100666.00;1764447;79;20937;-60
2021/08/25 10:04:11;;;;;;;11.15;7.62;;;;;;;28.60;63.50;100667.06;1762440;79;21813;-63
2021/08/25 10:06:42;;;;;;;9.85;7.80;;;;;;;28.53;63.90;100671.03;1764494;79;21042;-61
2021/08/25 10:09:15;;;;;;;7.85;7.05;;;;;;;28.42;64.18;100672.78;1769296;79;21084;-61
2021/08/25 10:11:46;;;;;;;11.60;7.37;;;;;;;28.36;64.53;100666.56;1765535;79;20974;-62
2021/08/25 10:14:18;;;;;;;11.85;7.08;;;;;;;28.35;64.72;100671.73;1765483;79;20942;-62
2021/08/25 10:16:52;;;;;;;17.20;8.03;;;;;;;28.38;64.02;100674.13;1773004;78;21419;-61
2021/08/25 10:19:36;;;;;;;13.20;8.60;;;;;;;28.37;63.72;100673.30;1765200;79;21533;-61
2021/08/25 10:22:22;;;;;;;12.28;8.30;;;;;;;28.31;63.85;100669.32;1764328;79;20890;-61
2021/08/25 10:24:57;;;;;;;13.40;7.70;;;;;;;28.24;63.75;100663.29;1758861;79;21672;-61
2021/08/25 10:27:25;;;;;;;15.83;7.92;;;;;;;28.19;63.64;100661.58;1762904;79;21060;-61
2021/08/25 10:30:12;;;;;;;13.50;8.08;;;;;;;28.13;63.21;100674.98;1766580;79;21592;-60
2021/08/25 10:32:56;;;;;;;91.00;67.95;;;;;;;28.07;63.20;100666.53;1766154;79;21088;-60
2021/08/25 10:35:31;;;;;;;9.70;7.80;;;;;;;28.02;63.68;100667.91;1761346;79;21099;-61
2021/08/25 10:38:24;;;;;;;11.10;7.65;;;;;;;28.07;63.01;100659.64;1770345;79;21666;-61
2021/08/25 10:41:01;;;;;;;10.48;7.62;;;;;;;28.06;62.33;100656.02;1752907;79;21068;-62
2021/08/25 10:43:38;;;;;;;;;;;;;;;28.03;61.98;100658.61;1770805;79;21777;-61
2021/08/25 10:46:06;;;;;;;11.73;7.30;;;;;;;28.01;63.13;100656.55;1752470;79;20170;-62
2021/08/25 10:48:38;;;;;;;12.90;8.00;;;;;;;28.00;62.91;100656.20;1765008;79;21098;-62
2021/08/25 10:51:05;;;;;;;11.97;8.18;;;;;;;28.06;63.19;100648.28;1765361;79;21026;-60
2021/08/25 10:53:35;;;;;;;9.50;7.75;;;;;;;28.08;62.75;100644.34;1770537;79;21483;-60
2021/08/25 10:56:25;;;;;;;13.05;7.72;;;;;;;28.07;62.02;100644.49;1770713;79;21823;-60
2021/08/25 10:58:59;;;;;;;16.15;9.03;;;;;;;28.05;61.73;100649.31;1748204;79;21001;-60
2021/08/25 11:01:43;;;;;;;12.78;8.88;;;;;;;28.01;62.36;100646.91;1763610;79;21044;-60
2021/08/25 11:04:23;;;;;;;9.48;8.08;;;;;;;27.97;62.38;100644.66;1762079;79;21084;-61
2021/08/25 11:07:01;;;;;;;14.73;8.90;;;;;;;27.91;63.54;100639.31;1774211;79;21069;-60
2021/08/25 11:09:36;;;;;;;10.88;8.53;;;;;;;27.87;63.90;100642.06;1767300;78;21792;-61
2021/08/25 11:12:13;;;;;;;16.05;9.58;;;;;;;27.81;64.70;100642.75;1776849;79;21094;-60
2021/08/25 11:14:45;;;;;;;13.85;8.75;;;;;;;27.78;64.70;100638.97;1767119;79;21379;-60
2021/08/25 11:17:32;;;;;;;16.02;9.15;;;;;;;27.73;65.41;100633.42;1770961;79;21003;-62
2021/08/25 11:20:01;;;;;;;13.03;9.23;;;;;;;27.73;66.12;100638.94;1709101;82;21056;-60